Tiempo atmosférico en la estación meteorológica de Burgo de Osma, Soria (932 m.)



Fecha
DESCASC
Temp. máxima en grados centígrados (hora)
DESCASC
Temp. mínima en grados centígrados (hora)
DESCASC
Temp. media en grados centígrados
DESCASC
Racha de viento máxima en m/sg (hora)
DESCASC
Velocidad máxima media en intervalos de 10 minutos(hora)
DESCASC
Precipitaciones diarias en mm
DESCASC
Precipitaciones de 00:00 a 06:00 en mm
DESCASC
Precipitaciones de 06:00 a 12:00 en mm
DESCASC
Precipitaciones de 12:00 a 18:00 en mm
DESCASC
Precipitaciones de 18:00 a 24:00 en mm
DESCASC
13-10-2019 23.7 (15:50) 12.6 (07:40) 18.2 12.5 (15:20) 8.06 (16:50) 0 0 0 0 0
12-10-2019 26.4 (16:40) 12 (07:00) 19.2 15 (23:59) 8.61 (23:59) 0 0 0 0 0
10-10-2019 26.1 (17:30) 3.5 (00:00) 14.8 8.61 (12:00) 6.39 (12:00) 0 0 0 0 0
09-10-2019 21.9 (16:40) 7.6 (00:00) 14.7 10 (13:10) 7.22 (13:10) 0 0 0 0 0
08-10-2019 28.4 (16:50) 5.3 (00:00) 16.8 7.22 (16:10) 5 (17:40) 0 0 0 0 0
07-10-2019 25.1 (18:00) 4 (00:00) 14.6 10.83 (17:20) 8.33 (17:40) 0 0 0 0 0
06-10-2019 22.5 (17:10) 4.4 (00:00) 13.5 10 (18:40) 6.39 (16:30) 0 0 0 0 0
05-10-2019 24.8 (17:00) 4.5 (08:00) 14.6 8.33 (13:10) 4.72 (17:50) 0 0 0 0 0
04-10-2019 23.8 (16:30) 3.4 (00:00) 13.6 9.72 (16:50) 6.39 (16:50) 0 0 0 0 0
03-10-2019 22.6 (17:30) 3.1 (00:00) 12.9 11.67 (14:10) 8.06 (13:40) 0 0 0 0 0
02-10-2019 19.8 (17:10) 8.3 (00:00) 14 9.44 (09:00) 7.22 (09:00) 0.4 0 0.4 0 0
01-10-2019 22.5 (17:20) 6.6 (00:00) 14.5 13.61 (14:30) 9.17 (14:40) 0 0 0 0 0
30-09-2019 28.1 (17:10) 6.2 (00:00) 17.2 8.33 (17:30) 5 (17:30) 0 0 0 0 0
29-09-2019 26.4 (17:30) 4.3 (00:00) 15.3 10.56 (14:00) 7.78 (14:00) 0 0 0 0 0
28-09-2019 27.8 (16:30) 4.6 (00:00) 16.2 5.83 (18:00) 3.61 (17:30) 0 0 0 0 0
27-09-2019 24.2 (16:30) 4.7 (00:00) 14.5 11.11 (15:00) 6.11 (15:40) 0 0 0 0 0
26-09-2019 25.5 (15:40) 6.4 (00:00) 16 9.17 (18:10) 5.83 (17:10) 0 0 0 0 0
25-09-2019 18.8 (16:10) 9.5 (00:00) 14.1 9.17 (13:40) 6.11 (12:50) 0 0 0 0 0
24-09-2019 20.8 (16:00) 6.1 (00:00) 13.4 10.28 (15:20) 7.78 (15:20) 0 0 0 0 0
23-09-2019 22.1 (16:50) 4.9 (00:00) 13.5 7.22 (14:40) 4.72 (17:10) 0 0 0 0 0
22-09-2019 19.3 (17:20) 9.9 (00:00) 14.6 13.33 (05:40) 8.89 (05:50) 1.4 1.2 0.2 0 0
21-09-2019 20.6 (15:00) 12.8 (00:00) 16.7 8.33 (16:30) 6.39 (16:30) 5 5 0 0 0
20-09-2019 25 (15:10) 13.9 (00:00) 19.4 10.28 (12:00) 6.94 (16:00) 4.2 0 0 0 4.2
19-09-2019 27.7 (16:20) 9.9 (00:00) 18.8 8.06 (17:30) 5.28 (17:30) 0 0 0 0 0
18-09-2019 24.5 (17:00) 11.8 (00:00) 18.2 8.06 (18:40) 5.28 (02:10) 7.8 7.8 0 0 0
17-09-2019 29.4 (17:10) 11.3 (00:00) 20.3 13.06 (23:20) 8.89 (23:30) 31.8 0 0 0 31.8
16-09-2019 25.8 (17:30) 14.1 (00:00) 19.9 7.78 (20:00) 5.28 (20:00) 5.4 1.8 2 0 1.6

Gráficas

Temp. máximas Temp. mínimas Temp. medias Precipitaciones Rachas de viento máximas Velocidades máximas media en intervalos de 10 minutos

Datos horarios

Fecha y hora oficial Temperatura (ºC) Velocidad del viento (km/h) Dirección del viento Racha (km/h) Dirección de racha Precipitación (mm) Presión (hPa) Tendencia (hPa) Humedad (%)
2019-10-15 23:00:00 7.2 4 Oeste 10 Sudoeste 0 -- -- 76
2019-10-15 22:00:00 8 8 Oeste 10 Oeste 0 -- -- 70
2019-10-15 21:00:00 8.9 6 Sudoeste 17 Oeste 0 -- -- 63
2019-10-15 20:00:00 10 11 Oeste 19 Oeste 0 -- -- 61
2019-10-15 19:00:00 11.4 15 Oeste 28 Oeste 0 -- -- 55
2019-10-15 18:00:00 12.5 21 Oeste 37 Oeste 0 -- -- 51
2019-10-15 17:00:00 13.5 23 Oeste 35 Oeste 0 -- -- 47
2019-10-15 16:00:00 12 23 Oeste 41 Oeste 0 -- -- 56
2019-10-15 15:00:00 11.8 27 Oeste 40 Oeste 0 -- -- 57
2019-10-15 14:00:00 11.4 24 Oeste 38 Oeste 0 -- -- 60
2019-10-15 13:00:00 10.1 21 Oeste 31 Oeste 0 -- -- 67
2019-10-15 12:00:00 8.5 16 Oeste 26 Oeste 0 -- -- 75
2019-10-15 11:00:00 6.6 18 Oeste 31 Oeste 0 -- -- 82
2019-10-15 10:00:00 5.7 21 Oeste 37 Oeste 0 -- -- 86
2019-10-15 09:00:00 5.6 24 Oeste 35 Oeste 0 -- -- 85
2019-10-15 08:00:00 5.5 18 Oeste 31 Oeste 0 -- -- 86
2019-10-15 07:00:00 5.1 13 Oeste 21 Oeste 0 -- -- 88
2019-10-15 06:00:00 5.1 14 Oeste 32 Oeste 0 -- -- 87
2019-10-15 05:00:00 5.7 19 Oeste 44 Oeste 0 -- -- 84
2019-10-15 04:00:00 6.2 28 Oeste 42 Oeste 0 -- -- 82
2019-10-15 03:00:00 6.2 27 Oeste 41 Oeste 0 -- -- 82
2019-10-15 02:00:00 6.5 28 Oeste 42 Oeste 0 -- -- 82
2019-10-15 01:00:00 6.5 30 Oeste 49 Oeste 0 -- -- 82
2019-10-15 00:00:00 7.4 30 Oeste 48 Oeste 0 -- -- 80
2019-10-14 23:00:00 7.6 19 Oeste 39 Oeste 0 -- -- 84
2019-10-14 22:00:00 7.5 13 Oeste 28 Oeste 0 -- -- 89
2019-10-14 21:00:00 7.6 17 Oeste 24 Oeste 0.4 -- -- 86
2019-10-14 20:00:00 7.5 18 Sudoeste 46 Oeste 0.6 -- -- 85
2019-10-14 19:00:00 8.1 32 Oeste 59 Oeste 3.2 -- -- 88
2019-10-14 18:00:00 11.2 40 Oeste 61 Oeste 0.8 -- -- 73
2019-10-14 17:00:00 16.4 31 Oeste 43 Oeste 0 -- -- 49
2019-10-14 16:00:00 18.2 26 Oeste 38 Sudoeste 0 -- -- 40
2019-10-14 15:00:00 18.1 15 Oeste 44 Oeste 0 -- -- 53
2019-10-14 14:00:00 16.5 25 Oeste 35 Oeste 0 -- -- 62
2019-10-14 13:00:00 14.5 25 Oeste 63 Sudoeste 0 -- -- 69
2019-10-14 12:00:00 17.9 33 Sudoeste 59 Sudoeste 0 -- -- 48
2019-10-14 11:00:00 18.8 41 Sudoeste 61 Sudoeste 0 -- -- 47
2019-10-14 10:00:00 17.8 24 Sur 39 Sur 0 -- -- 56
2019-10-14 09:00:00 16 10 Sudeste 18 Sudeste 0 -- -- 66
2019-10-14 08:00:00 16.1 6 Sudeste 24 Sur 0 -- -- 63
2019-10-14 07:00:00 15.9 14 Este 25 Sudeste 0 -- -- 63
2019-10-14 06:00:00 16.2 18 Sudeste 30 Sudeste 0 -- -- 61
2019-10-14 05:00:00 15.6 14 Sudeste 39 Sudeste 0 -- -- 55
2019-10-14 04:00:00 16.3 22 Sudeste 37 Sudeste 0 -- -- 53
2019-10-14 03:00:00 14.1 8 Sudeste 21 Sudeste 0 -- -- 64
2019-10-14 02:00:00 10.8 2 Este 12 Sur 0 -- -- 72
2019-10-14 01:00:00 15.1 0 Calma 8 Sudeste 0 -- -- 56
2019-10-14 00:00:00 15.2 2 Norte 14 Sur 0 -- -- 57
2019-10-13 23:00:00 16.9 8 Sudeste 23 Sur 0 -- -- 53
2019-10-13 22:00:00 17.7 17 Sur 31 Sur 0 -- -- 51
2019-10-13 21:00:00 16.6 4 Sudeste 21 Sur 0 -- -- 56
2019-10-13 20:00:00 18.9 15 Sur 34 Sur 0 -- -- 48
2019-10-13 19:00:00 20.8 23 Sur 36 Sur 0 -- -- 36
2019-10-13 18:00:00 22.6 23 Sur 41 Sudoeste 0 -- -- 34
2019-10-13 17:00:00 23.6 24 Sur 42 Sur 0 -- -- 31
2019-10-13 16:00:00 23.4 26 Sur 45 Sudoeste 0 -- -- 33
2019-10-13 15:00:00 22.7 28 Sur 42 Sur 0 -- -- 36
2019-10-13 14:00:00 22.4 24 Sur 40 Sudeste 0 -- -- 38
2019-10-13 13:00:00 22 22 Sur 39 Sur 0 -- -- 42
2019-10-13 12:00:00 21.1 21 Sur 34 Sur 0 -- -- 44
2019-10-13 11:00:00 20 17 Sur 32 Sur 0 -- -- 54
2019-10-13 10:00:00 17.6 17 Sudeste 30 Sudeste 0 -- -- 69
2019-10-13 09:00:00 15 9 Sudeste 27 Sudeste 0 -- -- 79
2019-10-13 08:00:00 13.1 8 Sudeste 16 Sudoeste 0 -- -- 76
2019-10-13 07:00:00 15.6 11 Sur 23 Sur 0 -- -- 72
2019-10-13 06:00:00 14.9 10 Sudoeste 26 Sur 0 -- -- 63
2019-10-13 05:00:00 15.9 12 Sur 27 Sur 0 -- -- 55
2019-10-13 04:00:00 14.8 0 Calma 8 Sudeste 0 -- -- 59
2019-10-13 03:00:00 15.8 4 Sudeste 16 Sudeste 0 -- -- 57
2019-10-13 02:00:00 16.7 9 Sudeste 37 Sudeste 0 -- -- 55
2019-10-13 01:00:00 18.1 13 Sur 42 Sur 0 -- -- 49
2019-10-13 00:00:00 18.5 31 Sur 54 Sur 0 -- -- 48
2019-10-12 23:00:00 20.2 23 Sur 42 Sur 0 -- -- 44
2019-10-12 22:00:00 20.3 16 Sudoeste 35 Sudoeste 0 -- -- 38
2019-10-12 21:00:00 20.3 12 Sur 22 Sur 0 -- -- 50
2019-10-12 20:00:00 21 17 Sur 34 Sur 0 -- -- 46
2019-10-12 19:00:00 22.6 22 Sudoeste 36 Sur 0 -- -- 36
2019-10-12 18:00:00 24.3 24 Sur 44 Sur 0 -- -- 37
2019-10-12 17:00:00 24.8 26 Sudoeste 44 Sudoeste 0 -- -- 35
2019-10-12 16:00:00 25 23 Sur 42 Sur 0 -- -- 34
2019-10-12 15:00:00 26 21 Sudoeste 33 Sudoeste 0 -- -- 31
2019-10-12 14:00:00 22.7 12 Sudeste 24 Sudeste 0 -- -- 49
2019-10-12 13:00:00 21.2 12 Sudeste 28 Sudeste 0 -- -- 54
2019-10-12 12:00:00 19.1 15 Sudeste 23 Este 0 -- -- 66
2019-10-12 11:00:00 20 10 Sur 21 Sur 0 -- -- 58
2019-10-12 10:00:00 15.6 3 Nordeste 10 Este 0 -- -- 73
2019-10-12 09:00:00 13.4 4 Noroeste 15 Sudeste 0 -- -- 81
2019-10-12 08:00:00 14.3 3 Este 8 Este 0 -- -- 76
2019-10-12 07:00:00 12 3 Norte 9 Sudeste 0 -- -- 85
2019-10-12 06:00:00 12.6 0 Calma 6 Este 0 -- -- 86
2019-10-12 05:00:00 12.9 2 Sudeste 9 Sur 0 -- -- 85
2019-10-12 04:00:00 14.2 0 Calma 8 Noroeste 0 -- -- 79
2019-10-12 03:00:00 14.5 2 Este 6 Sudeste 0 -- -- 78
2019-10-12 02:00:00 15 4 Este 8 Nordeste 0 -- -- 76
2019-10-12 01:00:00 16.9 3 Este 6 Sudeste 0 -- -- 70
2019-10-12 00:00:00 19.3 4 Sudeste 15 Sudeste 0 -- -- 61
2019-10-11 23:00:00 20.1 12 Sudeste 17 Sudeste 0 -- -- 60
2019-10-11 22:00:00 20.2 7 Sur 17 Sur 0 -- -- 59
2019-10-11 21:00:00 20.7 12 Sur 19 Sudoeste 0 -- -- 58
2019-10-11 20:00:00 22.1 12 Sur 23 Sur 0 -- -- 51
2019-10-11 19:00:00 24.5 17 Sur 31 Sur 0 -- -- 43
2019-10-11 18:00:00 26.6 19 Sur 33 Sudoeste 0 -- -- 38
2019-10-11 17:00:00 26.7 9 Sudoeste 17 Sudoeste 0 -- -- 39
2019-10-11 16:00:00 29 4 Este 14 Sudoeste 0 -- -- 35
2019-10-11 15:00:00 27.5 5 Sudoeste 15 Este 0 -- -- 37
2019-10-11 14:00:00 26.5 6 Sudoeste 14 Sudoeste 0 -- -- 39
2019-10-11 13:00:00 25.5 3 Noroeste 12 Este 0 -- -- 42
2019-10-11 12:00:00 22.1 7 Este 13 Este 0 -- -- 54
2019-10-11 11:00:00 18.7 7 Este 11 Este 0 -- -- 63
2019-10-11 10:00:00 13.5 4 Este 8 Este 0 -- -- 76
2019-10-11 09:00:00 8.6 5 Este 8 Este 0 -- -- 90
2019-10-11 08:00:00 7.5 3 Este 6 Este 0 -- -- 90
2019-10-11 07:00:00 7.8 3 Este 8 Este 0 -- -- 88
2019-10-11 06:00:00 8.4 5 Este 8 Este 0 -- -- 86
2019-10-11 05:00:00 8.7 5 Este 8 Este 0 -- -- 85
2019-10-11 04:00:00 9.4 5 Este 9 Este 0 -- -- 83
2019-10-11 03:00:00 10.9 6 Este 13 Este 0 -- -- 76
2019-10-11 02:00:00 12.3 6 Este 12 Este 0 -- -- 73
2019-10-11 01:00:00 12.8 5 Este 19 Este 0 -- -- 72
2019-10-11 00:00:00 14.2 11 Este 16 Este 0 -- -- 70
2019-10-10 23:00:00 14.6 6 Este 12 Este 0 -- -- 71
2019-10-10 22:00:00 15.5 8 Este 12 Este 0 -- -- 67
2019-10-10 21:00:00 17.3 9 Este 13 Este 0 -- -- 62
2019-10-10 20:00:00 18.8 5 Nordeste 12 Este 0 -- -- 56
2019-10-10 19:00:00 24.4 8 Este 13 Este 0 -- -- 43
2019-10-10 18:00:00 25.7 6 Este 17 Este 0 -- -- 40
2019-10-10 17:00:00 24.8 8 Nordeste 19 Este 0 -- -- 42
2019-10-10 16:00:00 24.2 9 Este 19 Este 0 -- -- 45
2019-10-10 15:00:00 22.8 11 Este 25 Este 0 -- -- 47
2019-10-10 14:00:00 20 17 Este 28 Este 0 -- -- 50
2019-10-10 13:00:00 18.2 20 Este 29 Este 0 -- -- 54
2019-10-10 12:00:00 15.9 23 Este 31 Este 0 -- -- 56
2019-10-10 11:00:00 13.5 18 Sudeste 27 Sudeste 0 -- -- 62
2019-10-10 10:00:00 10.8 8 Este 13 Sudeste 0 -- -- 71
2019-10-10 09:00:00 4.8 4 Este 9 Este 0 -- -- 92
2019-10-10 08:00:00 3.8 2 Nordeste 12 Este 0 -- -- 93
2019-10-10 07:00:00 3.7 4 Este 9 Este 0 -- -- 92
2019-10-10 06:00:00 4.4 5 Nordeste 8 Nordeste 0 -- -- 93
2019-10-10 05:00:00 4.8 5 Este 8 Este 0 -- -- 91
2019-10-10 04:00:00 6.3 4 Este 8 Nordeste 0 -- -- 89
2019-10-10 03:00:00 6.7 2 Este 7 Este 0 -- -- 88
2019-10-10 02:00:00 8 3 Este 9 Este 0 -- -- 85
2019-10-10 01:00:00 9.8 7 Este 13 Este 0 -- -- 79
2019-10-10 00:00:00 11.3 6 Este 14 Sudeste 0 -- -- 74
2019-10-09 23:00:00 12.3 6 Sudeste 20 Este 0 -- -- 73
2019-10-09 22:00:00 13 5 Sudeste 13 Este 0 -- -- 69
2019-10-09 21:00:00 14.4 12 Oeste 18 Oeste 0 -- -- 57
2019-10-09 20:00:00 16.3 12 Oeste 19 Oeste 0 -- -- 51
2019-10-09 19:00:00 19.8 14 Noroeste 24 Noroeste 0 -- -- 42
2019-10-09 18:00:00 21.2 15 Noroeste 30 Oeste 0 -- -- 39
2019-10-09 17:00:00 21.9 17 Noroeste 29 Oeste 0 -- -- 37
2019-10-09 16:00:00 21.6 15 Oeste 30 Oeste 0 -- -- 41
2019-10-09 15:00:00 20.7 15 Noroeste 32 Oeste 0 -- -- 42
2019-10-09 14:00:00 19.9 22 Oeste 36 Oeste 0 -- -- 46
2019-10-09 13:00:00 18.5 23 Oeste 33 Oeste 0 -- -- 61
2019-10-09 12:00:00 17.8 15 Noroeste 24 Oeste 0 -- -- 66
2019-10-09 11:00:00 16.2 14 Oeste 27 Oeste 0 -- -- 75
2019-10-09 10:00:00 14.8 16 Oeste 21 Oeste 0 -- -- 81
2019-10-09 09:00:00 12.3 13 Oeste 19 Oeste 0 -- -- 87
2019-10-09 08:00:00 11.5 7 Oeste 10 Sudoeste 0 -- -- 89
2019-10-09 07:00:00 7.8 0 Calma 10 Sudeste 0 -- -- 86
2019-10-09 06:00:00 7.9 0 Calma 5 Sudeste 0 -- -- 86
2019-10-09 05:00:00 8.2 0 Calma 4 Este 0 -- -- 84
2019-10-09 04:00:00 9.3 0 Calma 8 Sudeste 0 -- -- 80
2019-10-09 03:00:00 9.5 0 Calma 6 Nordeste 0 -- -- 79
2019-10-09 02:00:00 10.4 3 Este 6 Sudeste 0 -- -- 76
2019-10-09 01:00:00 10.8 0 Calma 6 Este 0 -- -- 74
2019-10-09 00:00:00 12.9 0 Calma 5 Este 0 -- -- 67
2019-10-08 23:00:00 14.3 0 Calma 4 Sudeste 0 -- -- 65
2019-10-08 22:00:00 17.9 2 Sudeste 12 Noroeste 0 -- -- 51
2019-10-08 21:00:00 21.9 11 Noroeste 17 Noroeste 0 -- -- 39
2019-10-08 20:00:00 22.6 9 Noroeste 18 Noroeste 0 -- -- 38
2019-10-08 19:00:00 26.6 14 Noroeste 25 Oeste 0 -- -- 31
2019-10-08 18:00:00 27.3 15 Noroeste 24 Oeste 0 -- -- 30
2019-10-08 17:00:00 28.4 15 Oeste 26 Oeste 0 -- -- 30
2019-10-08 16:00:00 27.8 13 Oeste 21 Oeste 0 -- -- 29
2019-10-08 15:00:00 28.2 7 Oeste 17 Oeste 0 -- -- 30
2019-10-08 14:00:00 26.4 7 Oeste 15 Oeste 0 -- -- 31
2019-10-08 13:00:00 26.9 3 Nordeste 8 Este 0 -- -- 32
2019-10-08 12:00:00 23.2 2 Sudeste 6 Sudeste 0 -- -- 38
2019-10-08 11:00:00 18.5 2 Este 6 Este 0 -- -- 48
2019-10-08 10:00:00 11.9 4 Este 6 Este 0 -- -- 65
2019-10-08 09:00:00 6.7 3 Este 7 Nordeste 0 -- -- 85
2019-10-08 08:00:00 5.6 4 Nordeste 6 Este 0 -- -- 88
2019-10-08 07:00:00 5.5 4 Sudeste 8 Este 0 -- -- 88
2019-10-08 06:00:00 6.2 3 Norte 6 Nordeste 0 -- -- 85
2019-10-08 05:00:00 6.5 3 Nordeste 7 Este 0 -- -- 83
2019-10-08 04:00:00 7 0 Calma 5 Este 0 -- -- 81
2019-10-08 03:00:00 7.7 2 Norte 6 Sudeste 0 -- -- 79
2019-10-08 02:00:00 8.6 0 Calma 6 Este 0 -- -- 75
2019-10-08 01:00:00 10 3 Sudeste 6 Sudeste 0 -- -- 70
2019-10-08 00:00:00 10.7 5 Sudeste 8 Sudeste 0 -- -- 68
2019-10-07 23:00:00 13.3 3 Nordeste 11 Oeste 0 -- -- 58
2019-10-07 22:00:00 16 0 Calma 14 Oeste 0 -- -- 49
2019-10-07 21:00:00 18.3 9 Oeste 12 Noroeste 0 -- -- 42
2019-10-07 20:00:00 20.1 8 Noroeste 29 Oeste 0 -- -- 36
2019-10-07 19:00:00 24 19 Oeste 34 Oeste 0 -- -- 28
2019-10-07 18:00:00 25.1 22 Oeste 39 Oeste 0 -- -- 24
2019-10-07 17:00:00 24.7 26 Oeste 36 Oeste 0 -- -- 23
2019-10-07 16:00:00 24.2 23 Oeste 37 Oeste 0 -- -- 25
2019-10-07 15:00:00 23.1 21 Oeste 31 Oeste 0 -- -- 22
2019-10-07 14:00:00 21.9 21 Oeste 36 Oeste 0 -- -- 22
2019-10-07 13:00:00 20.3 21 Oeste 28 Oeste 0 -- -- 23
2019-10-07 12:00:00 17.9 21 Oeste 26 Oeste 0 -- -- 33
2019-10-07 11:00:00 14.5 17 Oeste 23 Oeste 0 -- -- 53
2019-10-07 10:00:00 12.6 8 Sudoeste 14 Sudoeste 0 -- -- 73
2019-10-07 09:00:00 5.6 0 Calma 0 Calma 0 -- -- 93
2019-10-07 08:00:00 4 0 Calma 0 Calma 0 -- -- 93
2019-10-07 07:00:00 4.8 0 Calma 0 Calma 0 -- -- 93
2019-10-07 06:00:00 5.5 0 Calma 0 Calma 0 -- -- 92
2019-10-07 05:00:00 6.5 0 Calma 0 Calma 0 -- -- 91
2019-10-07 04:00:00 7 0 Calma 0 Calma 0 -- -- 91
2019-10-07 03:00:00 7.4 0 Calma 0 Calma 0 -- -- 87
2019-10-07 02:00:00 7.8 0 Calma 0 Calma 0 -- -- 88
2019-10-07 01:00:00 8.9 0 Calma 0 Calma 0 -- -- 81
2019-10-07 00:00:00 9.5 0 Calma 0 Calma 0 -- -- 81
2019-10-06 23:00:00 12.2 0 Calma 10 Noroeste 0 -- -- 71
2019-10-06 22:00:00 14.4 7 Noroeste 10 Noroeste 0 -- -- 62
2019-10-06 21:00:00 15.9 9 Norte 16 Noroeste 0 -- -- 55
2019-10-06 20:00:00 18.6 14 Noroeste 30 Noroeste 0 -- -- 46
2019-10-06 19:00:00 21.4 21 Noroeste 36 Oeste 0 -- -- 39
2019-10-06 18:00:00 22.2 19 Noroeste 28 Oeste 0 -- -- 38
2019-10-06 17:00:00 22.3 14 Noroeste 31 Oeste 0 -- -- 38
2019-10-06 16:00:00 21.9 18 Oeste 27 Oeste 0 -- -- 38
2019-10-06 15:00:00 20.8 16 Oeste 24 Oeste 0 -- -- 43
2019-10-06 14:00:00 19.3 14 Oeste 28 Oeste 0 -- -- 50
2019-10-06 13:00:00 17.6 20 Oeste 28 Oeste 0 -- -- 56
2019-10-06 12:00:00 16.4 18 Oeste 24 Oeste 0 -- -- 60
2019-10-06 11:00:00 15.8 6 Noroeste 13 Oeste 0 -- -- 62
2019-10-06 10:00:00 9.8 2 Sudeste 4 Sudeste 0 -- -- 79
2019-10-06 09:00:00 6 0 Calma 3 Sudeste 0 -- -- 91
2019-10-06 08:00:00 4.7 0 Calma 6 Sudeste 0 -- -- 93
2019-10-06 07:00:00 5.2 0 Calma 5 Sudeste 0 -- -- 93
2019-10-06 06:00:00 4.8 2 Este 5 Sudeste 0 -- -- 92
2019-10-06 05:00:00 5.4 0 Calma 4 Sudeste 0 -- -- 91
2019-10-06 04:00:00 6.2 3 Sudeste 5 Sudeste 0 -- -- 89
2019-10-06 03:00:00 7.3 2 Este 3 Norte 0 -- -- 87
2019-10-06 02:00:00 7.6 0 Calma 5 Sudeste 0 -- -- 85
2019-10-06 01:00:00 8.6 2 Sudeste 6 Sudeste 0 -- -- 84
2019-10-06 00:00:00 10.9 0 Calma 8 Oeste 0 -- -- 76
2019-10-05 23:00:00 12.8 3 Sudeste 6 Sudoeste 0 -- -- 70
2019-10-05 22:00:00 15.1 2 Sudoeste 12 Noroeste 0 -- -- 59
2019-10-05 21:00:00 18.8 10 Noroeste 15 Noroeste 0 -- -- 48
2019-10-05 20:00:00 19.6 9 Noroeste 22 Noroeste 0 -- -- 44
2019-10-05 19:00:00 23.4 13 Noroeste 23 Noroeste 0 -- -- 38
2019-10-05 18:00:00 24.2 16 Noroeste 27 Oeste 0 -- -- 40
2019-10-05 17:00:00 24.8 11 Noroeste 25 Oeste 0 -- -- 39
2019-10-05 16:00:00 24.5 10 Noroeste 27 Oeste 0 -- -- 37
2019-10-05 15:00:00 23.7 10 Noroeste 23 Oeste 0 -- -- 42
2019-10-05 14:00:00 22.5 12 Oeste 30 Oeste 0 -- -- 46
2019-10-05 13:00:00 21.1 12 Noroeste 21 Noroeste 0 -- -- 50
2019-10-05 12:00:00 19.5 7 Sudoeste 11 Sudoeste 0 -- -- 58
2019-10-05 11:00:00 16.4 3 Este 6 Sudeste 0 -- -- 62
2019-10-05 10:00:00 10.7 3 Este 5 Este 0 -- -- 81
2019-10-05 09:00:00 5.9 3 Nordeste 6 Nordeste 0 -- -- 94
2019-10-05 08:00:00 4.5 3 Este 6 Este 0 -- -- 95
2019-10-05 07:00:00 5.2 0 Calma 5 Nordeste 0 -- -- 94
2019-10-05 06:00:00 6.1 3 Nordeste 5 Este 0 -- -- 94
2019-10-05 05:00:00 6.6 4 Este 5 Este 0 -- -- 92
2019-10-05 04:00:00 7.1 2 Nordeste 6 Este 0 -- -- 92
2019-10-05 03:00:00 7.4 2 Este 5 Sudeste 0 -- -- 91
2019-10-05 02:00:00 8.5 0 Calma 5 Sudeste 0 -- -- 89
2019-10-05 01:00:00 9.7 2 Sudeste 4 Sur 0 -- -- 84
2019-10-05 00:00:00 12 0 Calma 10 Noroeste 0 -- -- 79
2019-10-04 23:00:00 15.8 10 Oeste 13 Oeste 0 -- -- 67
2019-10-04 22:00:00 16 11 Oeste 14 Oeste 0 -- -- 64
2019-10-04 21:00:00 18 9 Noroeste 12 Noroeste 0 -- -- 58
2019-10-04 20:00:00 19.8 12 Noroeste 23 Noroeste 0 -- -- 52
2019-10-04 19:00:00 23.2 13 Oeste 27 Oeste 0 -- -- 44
2019-10-04 18:00:00 23.7 17 Oeste 35 Oeste 0 -- -- 42
2019-10-04 17:00:00 23.7 20 Oeste 35 Oeste 0 -- -- 41
2019-10-04 16:00:00 23.4 18 Oeste 33 Noroeste 0 -- -- 44
2019-10-04 15:00:00 22.6 18 Oeste 32 Oeste 0 -- -- 47
2019-10-04 14:00:00 21.5 15 Noroeste 27 Noroeste 0 -- -- 48
2019-10-04 13:00:00 20.4 10 Oeste 20 Noroeste 0 -- -- 49
2019-10-04 12:00:00 20.8 2 Este 8 Sudeste 0 -- -- 44
2019-10-04 11:00:00 16.9 2 Este 4 Este 0 -- -- 50
2019-10-04 10:00:00 11 0 Calma 4 Este 0 -- -- 67
2019-10-04 09:00:00 5.5 0 Calma 4 Norte 0 -- -- 90
2019-10-04 08:00:00 3.6 0 Calma 6 Este 0 -- -- 91
2019-10-04 07:00:00 3.7 5 Este 8 Este 0 -- -- 90
2019-10-04 06:00:00 4.3 3 Este 10 Este 0 -- -- 89
2019-10-04 05:00:00 4.8 3 Este 6 Este 0 -- -- 87
2019-10-04 04:00:00 5.5 3 Este 6 Este 0 -- -- 87
2019-10-04 03:00:00 5.8 3 Nordeste 9 Nordeste 0 -- -- 84
2019-10-04 02:00:00 6.4 0 Calma 3 Sudeste 0 -- -- 84
2019-10-04 01:00:00 7.9 0 Calma 3 Sur 0 -- -- 79
2019-10-04 00:00:00 9.3 2 Sudeste 5 Sur 0 -- -- 73
2019-10-03 23:00:00 10.6 2 Sudeste 4 Sudeste 0 -- -- 70
2019-10-03 22:00:00 13.2 2 Sur 12 Oeste 0 -- -- 59
2019-10-03 21:00:00 16.1 9 Oeste 15 Oeste 0 -- -- 47
2019-10-03 20:00:00 18.6 13 Oeste 22 Oeste 0 -- -- 41
2019-10-03 19:00:00 21.7 19 Oeste 30 Oeste 0 -- -- 35
2019-10-03 18:00:00 22.1 22 Oeste 37 Oeste 0 -- -- 33
2019-10-03 17:00:00 22.3 22 Noroeste 37 Oeste 0 -- -- 33
2019-10-03 16:00:00 21.4 26 Oeste 41 Noroeste 0 -- -- 36
2019-10-03 15:00:00 20.8 22 Noroeste 42 Oeste 0 -- -- 38
2019-10-03 14:00:00 19.7 24 Oeste 39 Oeste 0 -- -- 41
2019-10-03 13:00:00 18.8 20 Oeste 33 Oeste 0 -- -- 45
2019-10-03 12:00:00 16.3 20 Oeste 28 Oeste 0 -- -- 54
2019-10-03 11:00:00 14.3 16 Oeste 24 Oeste 0 -- -- 62
2019-10-03 10:00:00 10.9 10 Oeste 18 Oeste 0 -- -- 78
2019-10-03 09:00:00 5.1 0 Calma 3 Sudeste 0 -- -- 93
2019-10-03 08:00:00 3.6 2 Sudeste 5 Este 0 -- -- 93
2019-10-03 07:00:00 3.6 0 Calma 4 Nordeste 0 -- -- 93
2019-10-03 06:00:00 4 0 Calma 3 Nordeste 0 -- -- 93
2019-10-03 05:00:00 4 0 Calma 4 Este 0 -- -- 92
2019-10-03 04:00:00 4.3 0 Calma 4 Este -- -- -- 90
2019-10-03 03:00:00 5.1 2 Nordeste 4 Nordeste 0 -- -- 89
2019-10-03 02:00:00 5.7 0 Calma 4 Nordeste 0 -- -- 86
2019-10-03 01:00:00 6.4 0 Calma 6 Sudeste 0 -- -- 85
2019-10-03 00:00:00 8.3 3 Sudeste 5 Sudeste 0 -- -- 80
2019-10-02 23:00:00 11 0 Calma 9 Noroeste 0 -- -- 68
2019-10-02 22:00:00 12.5 4 Norte 15 Norte 0 -- -- 61
2019-10-02 21:00:00 14.2 12 Noroeste 22 Noroeste 0 -- -- 55
2019-10-02 20:00:00 15.9 12 Noroeste 24 Noroeste 0 -- -- 50
2019-10-02 19:00:00 18.8 16 Noroeste 25 Noroeste 0 -- -- 42
2019-10-02 18:00:00 19 17 Noroeste 28 Noroeste 0 -- -- 41
2019-10-02 17:00:00 19.7 12 Noroeste 31 Noroeste 0 -- -- 40
2019-10-02 16:00:00 19.2 14 Noroeste 30 Norte 0 -- -- 43
2019-10-02 15:00:00 18.2 16 Oeste 33 Oeste 0 -- -- 44
2019-10-02 14:00:00 16.5 21 Oeste 33 Oeste 0 -- -- 55
2019-10-02 13:00:00 15.9 21 Oeste 33 Oeste 0 -- -- 57
2019-10-02 12:00:00 14.5 17 Oeste 34 Oeste 0.4 -- -- 63
2019-10-02 11:00:00 12.7 21 Oeste 33 Oeste 0 -- -- 70
2019-10-02 10:00:00 10.5 25 Oeste 33 Oeste 0 -- -- 78
2019-10-02 09:00:00 10.3 26 Oeste 34 Oeste 0 -- -- 80
2019-10-02 08:00:00 10.3 21 Oeste 30 Oeste 0 -- -- 78
2019-10-02 07:00:00 10.2 17 Oeste 32 Oeste 0 -- -- 78
2019-10-02 06:00:00 10.5 23 Oeste 31 Oeste 0 -- -- 76
2019-10-02 05:00:00 10.9 21 Oeste 27 Oeste 0 -- -- 74
2019-10-02 04:00:00 11.3 18 Oeste 28 Oeste 0 -- -- 72
2019-10-02 03:00:00 12.1 20 Oeste 25 Oeste 0 -- -- 69
2019-10-02 02:00:00 13.1 17 Oeste 28 Oeste 0 -- -- 64
2019-10-02 01:00:00 14.1 19 Oeste 26 Oeste 0 -- -- 60
2019-10-02 00:00:00 15.5 22 Oeste 32 Oeste 0 -- -- 56
2019-10-01 23:00:00 16.3 18 Oeste 30 Oeste 0 -- -- 54
2019-10-01 22:00:00 16.9 17 Oeste 26 Oeste 0 -- -- 55
2019-10-01 21:00:00 17.8 17 Oeste 24 Oeste 0 -- -- 54
2019-10-01 20:00:00 19.1 15 Oeste 37 Oeste 0 -- -- 48
2019-10-01 19:00:00 21.3 28 Oeste 39 Oeste 0 -- -- 42
2019-10-01 18:00:00 21.8 31 Oeste 41 Oeste 0 -- -- 43
2019-10-01 17:00:00 21.8 27 Oeste 41 Oeste 0 -- -- 43
2019-10-01 16:00:00 21.5 26 Oeste 44 Oeste 0 -- -- 46
2019-10-01 15:00:00 21.1 27 Oeste 49 Oeste 0 -- -- 48
2019-10-01 14:00:00 20.5 28 Oeste 42 Oeste 0 -- -- 48
2019-10-01 13:00:00 19.9 24 Oeste 38 Oeste 0 -- -- 55
2019-10-01 12:00:00 19.1 21 Noroeste 32 Oeste 0 -- -- 61
2019-10-01 11:00:00 17.8 13 Oeste 23 Oeste 0 -- -- 58
2019-10-01 10:00:00 13 2 Este 5 Sudeste 0 -- -- 72
2019-10-01 09:00:00 7.6 0 Calma 5 Sudeste 0 -- -- 87
2019-10-01 08:00:00 6.8 2 Este 6 Este 0 -- -- 90
2019-10-01 07:00:00 7 3 Este 7 Nordeste 0 -- -- 90
2019-10-01 06:00:00 7 3 Nordeste 5 Nordeste 0 -- -- 90
2019-10-01 05:00:00 7.4 3 Este 5 Este 0 -- -- 90
2019-10-01 04:00:00 8.2 3 Nordeste 6 Este 0 -- -- 88
2019-10-01 03:00:00 8.7 2 Este 6 Este 0 -- -- 87
2019-10-01 02:00:00 9.6 0 Calma 6 Sudeste 0 -- -- 83
2019-10-01 01:00:00 10.7 5 Nordeste 8 Nordeste 0 -- -- 79
2019-10-01 00:00:00 11.7 4 Sudeste 7 Nordeste 0 -- -- 76
2019-09-30 23:00:00 13.2 0 Calma 4 Sudeste 0 -- -- 74
2019-09-30 22:00:00 16.5 3 Sudeste 10 Oeste 0 -- -- 61
2019-09-30 21:00:00 18.8 0 Calma 10 Noroeste 0 -- -- 52
2019-09-30 20:00:00 22.1 9 Noroeste 13 Noroeste 0 -- -- 41
2019-09-30 19:00:00 26.2 9 Noroeste 19 Noroeste 0 -- -- 31
2019-09-30 18:00:00 27.6 11 Oeste 30 Sudoeste 0 -- -- 24
2019-09-30 17:00:00 27.8 9 Oeste 23 Oeste 0 -- -- 23
2019-09-30 16:00:00 27.1 7 Sudoeste 24 Sudoeste 0 -- -- 27
2019-09-30 15:00:00 25.7 12 Oeste 22 Oeste 0 -- -- 31
2019-09-30 14:00:00 25.3 7 Sudoeste 13 Sudoeste 0 -- -- 40
2019-09-30 13:00:00 24.6 3 Este 9 Sudoeste 0 -- -- 42
2019-09-30 12:00:00 23.6 3 Este 9 Este 0 -- -- 45
2019-09-30 11:00:00 19.7 4 Sudeste 7 Este 0 -- -- 50
2019-09-30 10:00:00 13.4 0 Calma 5 Sudeste 0 -- -- 64
2019-09-30 09:00:00 8 0 Calma 4 Sudeste 0 -- -- 80
2019-09-30 08:00:00 6.3 3 Sudeste 8 Sudeste 0 -- -- 84
2019-09-30 07:00:00 6.7 3 Sudeste 4 Sudeste 0 -- -- 82
2019-09-30 06:00:00 6.5 2 Este 5 Este 0 -- -- 82
2019-09-30 05:00:00 7.1 3 Noroeste 11 Sudeste 0 -- -- 80
2019-09-30 04:00:00 8.1 3 Sudeste 4 Sudeste 0 -- -- 75
2019-09-30 03:00:00 8 0 Calma 4 Este 0 -- -- 75
2019-09-30 02:00:00 8.6 3 Sudeste 4 Sudeste 0 -- -- 74
2019-09-30 01:00:00 8.9 3 Sudeste 4 Sudeste 0 -- -- 74
2019-09-30 00:00:00 10.2 0 Calma 5 Este 0 -- -- 72
2019-09-29 23:00:00 11.7 2 Sudeste 4 Sudeste 0 -- -- 65
2019-09-29 22:00:00 15.1 0 Calma 6 Sudeste 0 -- -- 49
2019-09-29 21:00:00 19.3 2 Oeste 12 Noroeste 0 -- -- 33
2019-09-29 20:00:00 22 9 Oeste 26 Oeste 0 -- -- 27
2019-09-29 19:00:00 25.6 17 Oeste 30 Noroeste 0 -- -- 22
2019-09-29 18:00:00 26.4 17 Oeste 35 Oeste 0 -- -- 23
2019-09-29 17:00:00 26.2 22 Oeste 38 Oeste 0 -- -- 23
2019-09-29 16:00:00 25.9 24 Oeste 37 Oeste 0 -- -- 25
2019-09-29 15:00:00 25 23 Oeste 36 Oeste 0 -- -- 30
2019-09-29 14:00:00 24.2 28 Oeste 38 Oeste 0 -- -- 30
2019-09-29 13:00:00 23.2 15 Oeste 25 Oeste 0 -- -- 34
2019-09-29 12:00:00 22.4 5 Este 9 Este 0 -- -- 39
2019-09-29 11:00:00 18.6 0 Calma 8 Este 0 -- -- 48
2019-09-29 10:00:00 11.8 3 Este 5 Este 0 -- -- 67
2019-09-29 09:00:00 6.1 3 Nordeste 5 Este 0 -- -- 91
2019-09-29 08:00:00 4.6 4 Este 6 Este 0 -- -- 90
2019-09-29 07:00:00 5.4 4 Nordeste 6 Nordeste 0 -- -- 88
2019-09-29 06:00:00 5.5 5 Este 6 Este 0 -- -- 89
2019-09-29 05:00:00 6.3 2 Este 6 Nordeste 0 -- -- 87
2019-09-29 04:00:00 6.7 3 Nordeste 8 Nordeste 0 -- -- 85
2019-09-29 03:00:00 7.5 4 Este 9 Nordeste 0 -- -- 83
2019-09-29 02:00:00 8.3 3 Nordeste 5 Nordeste 0 -- -- 81
2019-09-29 01:00:00 9.3 4 Este 7 Este 0 -- -- 79
2019-09-29 00:00:00 10.1 2 Este 4 Este 0 -- -- 80
2019-09-28 23:00:00 11.7 3 Este 5 Este 0 -- -- 77
2019-09-28 22:00:00 15.1 3 Sudeste 4 Este 0 -- -- 66
2019-09-28 21:00:00 18.2 0 Calma 12 Noroeste 0 -- -- 44
2019-09-28 20:00:00 21.1 9 Noroeste 13 Noroeste 0 -- -- 45
2019-09-28 19:00:00 25.2 10 Noroeste 17 Oeste 0 -- -- 34
2019-09-28 18:00:00 26.3 12 Oeste 21 Oeste 0 -- -- 30
2019-09-28 17:00:00 26.5 10 Oeste 19 Sudoeste 0 -- -- 29
2019-09-28 16:00:00 25.8 8 Oeste 18 Oeste 0 -- -- 32
2019-09-28 15:00:00 25.1 4 Sudoeste 13 Oeste 0 -- -- 35
2019-09-28 14:00:00 24.7 3 Este 11 Sur 0 -- -- 40
2019-09-28 13:00:00 22.6 4 Sur 10 Este 0 -- -- 45
2019-09-28 12:00:00 21.1 4 Este 7 Este 0 -- -- 49
2019-09-28 11:00:00 17.1 3 Este 8 Este 0 -- -- 57
2019-09-28 10:00:00 11.2 3 Este 6 Este 0 -- -- 72
2019-09-28 09:00:00 6 4 Este 8 Este 0 -- -- 89
2019-09-28 08:00:00 4.6 3 Nordeste 4 Nordeste 0 -- -- 90
2019-09-28 07:00:00 5 0 Calma 6 Este 0 -- -- 89
2019-09-28 06:00:00 5.1 2 Nordeste 4 Sudeste 0 -- -- 88
2019-09-28 05:00:00 5.5 2 Sudeste 4 Sudeste 0 -- -- 87
2019-09-28 04:00:00 5.8 2 Sudeste 6 Este 0 -- -- 85
2019-09-28 03:00:00 6.8 0 Calma 3 Sudeste 0 -- -- 81
2019-09-28 02:00:00 7.3 2 Sudeste 4 Este 0 -- -- 81
2019-09-28 01:00:00 8.4 3 Este 5 Este 0 -- -- 76
2019-09-28 00:00:00 9.4 2 Sudeste 3 Sudeste 0 -- -- 77
2019-09-27 23:00:00 11.7 2 Sudeste 5 Sudeste 0 -- -- 63
2019-09-27 22:00:00 13.8 3 Sudeste 9 Este 0 -- -- 54
2019-09-27 21:00:00 17.9 9 Noroeste 16 Noroeste 0 -- -- 34
2019-09-27 20:00:00 19.9 9 Noroeste 28 Oeste 0 -- -- 33
2019-09-27 19:00:00 23.3 18 Noroeste 31 Oeste 0 -- -- 25
2019-09-27 18:00:00 24 21 Oeste 38 Oeste 0 -- -- 26
2019-09-27 17:00:00 23.9 21 Oeste 38 Oeste 0 -- -- 26
2019-09-27 16:00:00 23.3 22 Noroeste 34 Oeste 0 -- -- 31
2019-09-27 15:00:00 22.7 20 Oeste 40 Oeste 0 -- -- 36
2019-09-27 14:00:00 21.7 15 Noroeste 33 Oeste 0 -- -- 42
2019-09-27 13:00:00 20.9 13 Noroeste 23 Oeste 0 -- -- 45
2019-09-27 12:00:00 19.5 9 Noroeste 18 Noroeste 0 -- -- 44
2019-09-27 11:00:00 17 10 Oeste 15 Sudoeste 0 -- -- 54
2019-09-27 10:00:00 11.8 3 Este 6 Este 0 -- -- 75
2019-09-27 09:00:00 6.3 4 Este 7 Sudeste 0 -- -- 92
2019-09-27 08:00:00 4.9 3 Este 4 Sudeste 0 -- -- 93
2019-09-27 07:00:00 5.5 3 Sudeste 4 Sudeste 0 -- -- 93
2019-09-27 06:00:00 5.9 0 Calma 4 Sudeste 0 -- -- 92
2019-09-27 05:00:00 6.6 2 Sudeste 4 Sudeste 0 -- -- 90
2019-09-27 04:00:00 7.6 0 Calma 3 Sudeste 0 -- -- 89
2019-09-27 03:00:00 8.3 2 Sudeste 5 Sudeste 0 -- -- 86
2019-09-27 02:00:00 9.4 4 Sudeste 6 Nordeste 0 -- -- 83
2019-09-27 01:00:00 10.2 2 Este 4 Sudeste 0 -- -- 83
2019-09-27 00:00:00 11.5 0 Calma 4 Sudeste 0 -- -- 80
2019-09-26 23:00:00 13.3 3 Sudeste 4 Sudeste 0 -- -- 74
2019-09-26 22:00:00 16.7 0 Calma 10 Noroeste 0 -- -- 55
2019-09-26 21:00:00 19.5 8 Noroeste 12 Noroeste 0 -- -- 41
2019-09-26 20:00:00 21.2 8 Noroeste 22 Oeste 0 -- -- 39
2019-09-26 19:00:00 24.5 15 Noroeste 33 Oeste 0 -- -- 33
2019-09-26 18:00:00 25.2 18 Noroeste 31 Noroeste 0 -- -- 33
2019-09-26 17:00:00 25.2 17 Oeste 32 Oeste 0 -- -- 37
2019-09-26 16:00:00 25.3 13 Noroeste 23 Oeste 0 -- -- 37
2019-09-26 15:00:00 24.3 10 Oeste 20 Sudoeste 0 -- -- 37
2019-09-26 14:00:00 23.1 9 Sudoeste 22 Sudoeste 0 -- -- 39
2019-09-26 13:00:00 22 5 Sudoeste 13 Sudoeste 0 -- -- 43
2019-09-26 12:00:00 19.7 4 Sudeste 15 Sudeste 0 -- -- 52
2019-09-26 11:00:00 17.3 3 Sudeste 8 Sudeste 0 -- -- 60
2019-09-26 10:00:00 12.7 2 Este 5 Este 0 -- -- 77
2019-09-26 09:00:00 8.2 2 Este 3 Este 0 -- -- 95
2019-09-26 08:00:00 6.5 0 Calma 4 Nordeste 0 -- -- 95
2019-09-26 07:00:00 6.6 3 Este 6 Nordeste 0 -- -- 94
2019-09-26 06:00:00 6.9 3 Este 5 Este 0 -- -- 95
2019-09-26 05:00:00 7.4 3 Nordeste 5 Este 0 -- -- 94
2019-09-26 04:00:00 7.6 3 Este 6 Este 0 -- -- 94
2019-09-26 03:00:00 8.2 3 Nordeste 5 Nordeste 0 -- -- 94
2019-09-26 02:00:00 8.9 2 Este 3 Sudeste 0 -- -- 92
2019-09-26 01:00:00 9.7 2 Sur 4 Sudeste 0 -- -- 91
2019-09-26 00:00:00 10.5 0 Calma 4 Sudeste 0 -- -- 87
2019-09-25 23:00:00 12.1 0 Calma 7 Sudeste 0 -- -- 79
2019-09-25 22:00:00 13.8 0 Calma 5 Noroeste 0 -- -- 71
2019-09-25 21:00:00 15.1 5 Noroeste 14 Noroeste 0 -- -- 63
2019-09-25 20:00:00 16.4 9 Noroeste 19 Noroeste 0 -- -- 58
2019-09-25 19:00:00 17.8 13 Noroeste 23 Noroeste 0 -- -- 52
2019-09-25 18:00:00 18.2 14 Noroeste 24 Oeste 0 -- -- 51
2019-09-25 17:00:00 18.3 16 Noroeste 33 Oeste 0 -- -- 50
2019-09-25 16:00:00 18.3 17 Oeste 32 Oeste 0 -- -- 50
2019-09-25 15:00:00 17.6 17 Oeste 32 Oeste 0 -- -- 51
2019-09-25 14:00:00 17 20 Oeste 33 Oeste 0 -- -- 56
2019-09-25 13:00:00 15.8 19 Oeste 31 Oeste 0 -- -- 61
2019-09-25 12:00:00 14.8 19 Noroeste 31 Oeste 0 -- -- 63
2019-09-25 11:00:00 13.6 16 Oeste 25 Oeste 0 -- -- 67
2019-09-25 10:00:00 11.7 10 Oeste 18 Oeste 0 -- -- 79
2019-09-25 09:00:00 10.2 5 Oeste 13 Oeste 0 -- -- 86
2019-09-25 08:00:00 9.6 8 Noroeste 15 Oeste 0 -- -- 86
2019-09-25 07:00:00 10.4 13 Oeste 22 Oeste 0 -- -- 86
2019-09-25 06:00:00 11.7 14 Oeste 22 Oeste 0 -- -- 77
2019-09-25 05:00:00 12.1 10 Oeste 22 Oeste 0 -- -- 75
2019-09-25 04:00:00 12.9 15 Oeste 29 Oeste 0 -- -- 77
2019-09-25 03:00:00 14.1 20 Oeste 33 Oeste 0 -- -- 73
2019-09-25 02:00:00 14.9 19 Oeste 27 Oeste 0 -- -- 72
2019-09-25 01:00:00 15.6 15 Oeste 28 Oeste 0 -- -- 80
2019-09-25 00:00:00 16.5 19 Oeste 28 Oeste 0 -- -- 83
2019-09-24 23:00:00 16.3 9 Oeste 20 Oeste 0 -- -- 84
2019-09-24 22:00:00 16.6 13 Oeste 24 Oeste 0 -- -- 83
2019-09-24 21:00:00 17.3 19 Oeste 28 Sudoeste 0 -- -- 77
2019-09-24 20:00:00 18.2 15 Oeste 29 Oeste 0 -- -- 77
2019-09-24 19:00:00 19.3 18 Sudoeste 26 Sudoeste 0 -- -- 70
2019-09-24 18:00:00 18.3 19 Oeste 36 Oeste 0 -- -- 74
2019-09-24 17:00:00 19.5 21 Oeste 34 Oeste 0 -- -- 63
2019-09-24 16:00:00 20.8 23 Oeste 37 Oeste 0 -- -- 60
2019-09-24 15:00:00 20.5 22 Oeste 36 Oeste 0 -- -- 61
2019-09-24 14:00:00 18.8 20 Oeste 30 Oeste 0 -- -- 61
2019-09-24 13:00:00 17.9 14 Sudoeste 25 Oeste 0 -- -- 59
2019-09-24 12:00:00 16.4 18 Oeste 28 Oeste 0 -- -- 66
2019-09-24 11:00:00 17.2 10 Oeste 20 Oeste 0 -- -- 60
2019-09-24 10:00:00 12.3 2 Nordeste 5 Este 0 -- -- 88
2019-09-24 09:00:00 7.4 3 Sudeste 6 Este 0 -- -- 96
2019-09-24 08:00:00 6.1 2 Sudeste 4 Sudeste 0 -- -- 96
2019-09-24 07:00:00 6.6 2 Este 3 Sudeste 0 -- -- 95
2019-09-24 06:00:00 7.1 0 Calma 3 Sudeste 0 -- -- 95
2019-09-24 05:00:00 7.7 2 Este 4 Nordeste 0 -- -- 95
2019-09-24 04:00:00 8 0 Calma 3 Sudeste 0 -- -- 94
2019-09-24 03:00:00 8.2 0 Calma 4 Sudeste 0 -- -- 93
2019-09-24 02:00:00 8.8 0 Calma 5 Sudeste 0 -- -- 92
2019-09-24 01:00:00 10 2 Este 4 Nordeste 0 -- -- 91
2019-09-24 00:00:00 11 2 Sudeste 3 Sur 0 -- -- 88
2019-09-23 23:00:00 12.1 0 Calma 5 Sudeste 0 -- -- 84
2019-09-23 22:00:00 14.4 3 Sudeste 4 Sudeste 0 -- -- 73
2019-09-23 21:00:00 16 4 Noroeste 7 Noroeste 0 -- -- 63
2019-09-23 20:00:00 18.2 6 Noroeste 19 Oeste 0 -- -- 53
2019-09-23 19:00:00 20.8 13 Noroeste 21 Oeste 0 -- -- 44
2019-09-23 18:00:00 20.8 13 Oeste 26 Oeste 0 -- -- 43
2019-09-23 17:00:00 22 13 Oeste 24 Oeste 0 -- -- 39
2019-09-23 16:00:00 20.3 13 Oeste 19 Noroeste 0 -- -- 44
2019-09-23 15:00:00 19.6 9 Sudoeste 26 Noroeste 0 -- -- 47
2019-09-23 14:00:00 18.4 14 Oeste 22 Oeste 0 -- -- 51
2019-09-23 13:00:00 17.6 6 Oeste 11 Sudoeste 0 -- -- 55
2019-09-23 12:00:00 16.1 2 Nordeste 6 Noroeste 0 -- -- 64
2019-09-23 11:00:00 13.8 2 Nordeste 5 Este 0 -- -- 72
2019-09-23 10:00:00 9.8 3 Este 6 Este 0 -- -- 92
2019-09-23 09:00:00 6.1 4 Este -- -- 0 -- -- 96
2019-09-23 08:00:00 5.1 2 Sudeste 4 Nordeste 0 -- -- 96
2019-09-23 07:00:00 5.4 2 Nordeste 5 Nordeste 0 -- -- 97
2019-09-23 06:00:00 5.5 2 Sudeste 4 Sudeste 0 -- -- 96
2019-09-23 05:00:00 6.1 3 Este 5 Este 0 -- -- 96
2019-09-23 04:00:00 6.4 3 Este 5 Este 0 -- -- 95
2019-09-23 03:00:00 7 2 Sudeste 4 Sudeste 0 -- -- 95
2019-09-23 02:00:00 7.5 0 Calma 5 Este 0 -- -- 94
2019-09-23 01:00:00 8.9 0 Calma 6 Noroeste 0 -- -- 90
2019-09-23 00:00:00 9.9 0 Calma 4 Sudeste 0 -- -- 86
2019-09-22 23:00:00 11.3 3 Este 12 Noroeste 0 -- -- 80
2019-09-22 22:00:00 13.4 10 Noroeste 13 Noroeste 0 -- -- 71
2019-09-22 21:00:00 14.2 9 Noroeste 14 Oeste 0 -- -- 66
2019-09-22 20:00:00 16 15 Oeste 32 Oeste 0 -- -- 56
2019-09-22 19:00:00 18.2 21 Oeste 33 Oeste 0 -- -- 48
2019-09-22 18:00:00 18.4 22 Noroeste 35 Oeste 0 -- -- 50
2019-09-22 17:00:00 18.4 24 Oeste 41 Oeste 0 -- -- 49
2019-09-22 16:00:00 17.8 23 Noroeste 39 Oeste 0 -- -- 55
2019-09-22 15:00:00 18 24 Oeste 37 Oeste 0 -- -- 57
2019-09-22 14:00:00 16.4 24 Oeste 35 Oeste 0 -- -- 59
2019-09-22 13:00:00 15.7 21 Oeste 38 Oeste 0 -- -- 66
2019-09-22 12:00:00 14.8 28 Oeste 36 Oeste 0 -- -- 73
2019-09-22 11:00:00 12.7 17 Oeste 27 Oeste 0 -- -- 85
2019-09-22 10:00:00 12 17 Oeste 26 Oeste 0 -- -- 89
2019-09-22 09:00:00 11.4 17 Oeste 32 Oeste 0 -- -- 92
2019-09-22 08:00:00 11.1 23 Oeste 34 Oeste 0 -- -- 93
2019-09-22 07:00:00 11.7 25 Oeste 37 Oeste 0.2 -- -- 92
2019-09-22 06:00:00 12.8 28 Oeste 48 Oeste 0.4 -- -- 91
2019-09-22 05:00:00 16 9 Sur 22 Sudoeste 0.8 -- -- 81
2019-09-22 04:00:00 16.5 8 Sudoeste 25 Sudoeste 0 -- -- 76
2019-09-22 03:00:00 17.1 14 Sur 27 Sur 0 -- -- 72
2019-09-22 02:00:00 17.1 13 Sudoeste 23 Sudoeste 0 -- -- 71
2019-09-22 01:00:00 17 9 Sur 24 Sudoeste 0 -- -- 70
2019-09-22 00:00:00 17.3 14 Sudoeste 25 Sudoeste 0 -- -- 70
2019-09-21 23:00:00 17.3 10 Sudoeste 18 Sudoeste 0 -- -- 74
2019-09-21 22:00:00 17.2 9 Sudoeste 18 Sur 0 -- -- 75
2019-09-21 21:00:00 17.5 8 Sur 18 Sur 0 -- -- 74
2019-09-21 20:00:00 16.9 5 Este 15 Oeste 0 -- -- 79
2019-09-21 19:00:00 17.4 13 Oeste 26 Sudoeste 0 -- -- 73
2019-09-21 18:00:00 19.1 16 Sudoeste 29 Sudoeste 0 -- -- 65
2019-09-21 17:00:00 19.1 19 Sudoeste 30 Sudoeste 0 -- -- 63
2019-09-21 16:00:00 20 18 Sudoeste 29 Sudoeste 0 -- -- 57
2019-09-21 15:00:00 20.6 15 Sur 26 Sudoeste 0 -- -- 56
2019-09-21 14:00:00 20.4 12 Sur 26 Sudoeste 0 -- -- 54
2019-09-21 13:00:00 19.9 10 Sudoeste 27 Sudoeste 0 -- -- 54
2019-09-21 12:00:00 19.6 15 Sur 23 Sudoeste 0 -- -- 59
2019-09-21 11:00:00 19 11 Sur 19 Sur 0 -- -- 66
2019-09-21 10:00:00 16.9 8 Este 12 Sudeste 0 -- -- 79
2019-09-21 09:00:00 14.2 3 Este 4 Este 0 -- -- 95
2019-09-21 08:00:00 13.1 0 Calma 9 Este 0 -- -- 95
2019-09-21 07:00:00 13 4 Nordeste 10 Este 0 -- -- 94
2019-09-21 06:00:00 13.2 4 Nordeste 12 Nordeste 0 -- -- 93
2019-09-21 05:00:00 13.2 9 Este 13 Este 0.6 -- -- 93
2019-09-21 04:00:00 13.5 5 Este 10 Este 0 -- -- 90
2019-09-21 03:00:00 13.2 8 Este 13 Este 0 -- -- 92
2019-09-21 02:00:00 13.4 8 Este 14 Este 0.2 -- -- 91
2019-09-21 01:00:00 13.7 11 Este 17 Noroeste 4.2 -- -- 90
2019-09-21 00:00:00 14 10 Sudoeste 32 Sudoeste 4.2 -- -- 88
2019-09-20 23:00:00 17.8 10 Sur 35 Sudeste 0 -- -- 69
2019-09-20 22:00:00 19 9 Este 18 Sudeste 0 -- -- 68
2019-09-20 21:00:00 20.4 10 Sudeste 17 Sudeste 0 -- -- 62
2019-09-20 20:00:00 21.4 11 Sur 30 Sur 0 -- -- 58
2019-09-20 19:00:00 22.6 20 Sur 33 Sur 0 -- -- 54
2019-09-20 18:00:00 23.3 18 Sur 30 Sudeste 0 -- -- 51
2019-09-20 17:00:00 23.1 18 Sudeste 33 Sur 0 -- -- 53
2019-09-20 16:00:00 23.9 25 Sudeste 36 Sudeste 0 -- -- 47
2019-09-20 15:00:00 24.5 20 Sudeste 31 Sudeste 0 -- -- 44
2019-09-20 14:00:00 24.4 19 Sudeste 34 Sudeste 0 -- -- 47
2019-09-20 13:00:00 23 23 Sudeste 37 Este 0 -- -- 53
2019-09-20 12:00:00 20.5 24 Este 37 Sudeste 0 -- -- 65
2019-09-20 11:00:00 17.5 18 Este 27 Este 0 -- -- 77
2019-09-20 10:00:00 16.3 19 Este 27 Este 0 -- -- 80
2019-09-20 09:00:00 14.7 14 Este 20 Este 0 -- -- 85
2019-09-20 08:00:00 13.9 12 Nordeste 20 Nordeste 0 -- -- 86
2019-09-20 07:00:00 14.1 11 Este 21 Este 0 -- -- 85
2019-09-20 06:00:00 14.3 10 Este 18 Este 0 -- -- 84
2019-09-20 05:00:00 14.6 11 Este 17 Este 0 -- -- 84
2019-09-20 04:00:00 14.8 11 Este 17 Este 0 -- -- 84
2019-09-20 03:00:00 15.5 10 Este 17 Este 0 -- -- 82
2019-09-20 02:00:00 15.6 9 Este 12 Este 0 -- -- 81
2019-09-20 01:00:00 16.9 6 Este 9 Este 0 -- -- 73
2019-09-20 00:00:00 17.2 4 Este 15 Este 0 -- -- 73
2019-09-19 23:00:00 16.7 7 Este 12 Este 0 -- -- 75
2019-09-19 22:00:00 17.7 0 Calma 10 Nordeste 0 -- -- 72
2019-09-19 21:00:00 20.5 3 Sudoeste 9 Sur 0 -- -- 59
2019-09-19 20:00:00 22.3 6 Sur 9 Sur 0 -- -- 52
2019-09-19 19:00:00 24.7 6 Sur 17 Sur 0 -- -- 46
2019-09-19 18:00:00 23.7 12 Sur 29 Sur 0 -- -- 48
2019-09-19 17:00:00 25.2 7 Sudoeste 15 Sudoeste 0 -- -- 42
2019-09-19 16:00:00 26.2 6 Oeste 18 Sudoeste 0 -- -- 39
2019-09-19 15:00:00 25 11 Sudoeste 21 Sudoeste 0 -- -- 42
2019-09-19 14:00:00 25.1 6 Sur 14 Sudoeste 0 -- -- 41
2019-09-19 13:00:00 23.7 5 Sudoeste 15 Este 0 -- -- 51
2019-09-19 12:00:00 21.5 7 Sudeste 16 Sudeste 0 -- -- 58
2019-09-19 11:00:00 20 8 Este 16 Este 0 -- -- 64
2019-09-19 10:00:00 15.4 2 Este 5 Este 0 -- -- 86
2019-09-19 09:00:00 10.9 3 Sudeste 5 Este 0 -- -- 96
2019-09-19 08:00:00 9.9 0 Calma 4 Este 0 -- -- 96
2019-09-19 07:00:00 10.3 3 Nordeste 5 Este 0 -- -- 96
2019-09-19 06:00:00 10.8 3 Este 4 Nordeste 0 -- -- 95
2019-09-19 05:00:00 11 3 Este 5 Este 0 -- -- 94
2019-09-19 04:00:00 11.7 3 Este 5 Nordeste 0 -- -- 93
2019-09-19 03:00:00 11.9 3 Este 4 Este 0 -- -- 93
2019-09-19 02:00:00 12.3 4 Nordeste 9 Este 0 -- -- 92
2019-09-19 01:00:00 12.6 4 Este 6 Sudeste 0 -- -- 91
2019-09-19 00:00:00 13.6 2 Nordeste 5 Este 0 -- -- 89
2019-09-18 23:00:00 15.1 3 Este 5 Este 0 -- -- 79
2019-09-18 22:00:00 16.2 0 Calma 8 Sudeste 0 -- -- 74
2019-09-18 21:00:00 17.3 4 Este 13 Nordeste 0 -- -- 66
2019-09-18 20:00:00 19.4 13 Nordeste 18 Nordeste 0 -- -- 58
2019-09-18 19:00:00 21.6 14 Norte 29 Noroeste 0 -- -- 53
2019-09-18 18:00:00 23.8 15 Oeste 24 Oeste 0 -- -- 44
2019-09-18 17:00:00 24.5 7 Sudoeste 17 Oeste 0 -- -- 42
2019-09-18 16:00:00 23.7 8 Oeste 21 Oeste 0 -- -- 42
2019-09-18 15:00:00 24.2 7 Sudoeste 17 Sudoeste 0 -- -- 45
2019-09-18 14:00:00 21.9 5 Oeste 15 Sur 0 -- -- 52
2019-09-18 13:00:00 21.3 5 Sur 13 Sudeste 0 -- -- 58
2019-09-18 12:00:00 20.1 4 Este 13 Este 0 -- -- 70
2019-09-18 11:00:00 16.9 8 Este 12 Este 0 -- -- 91
2019-09-18 10:00:00 13.8 5 Este 10 Este 0 -- -- 96
2019-09-18 09:00:00 12.2 5 Este 9 Sudeste 0 -- -- 97
2019-09-18 08:00:00 12 0 Calma 4 Sudeste 0 -- -- 97
2019-09-18 07:00:00 11.9 3 Este 9 Nordeste 0 -- -- 96
2019-09-18 06:00:00 12 2 Nordeste 6 Oeste 0 -- -- 96
2019-09-18 05:00:00 12.8 4 Noroeste 14 Oeste 0 -- -- 95
2019-09-18 04:00:00 13.5 9 Sudoeste 15 Sur 0 -- -- 94
2019-09-18 03:00:00 13.8 5 Sur 28 Nordeste 0.2 -- -- 92
2019-09-18 02:00:00 13.8 16 Nordeste 22 Oeste 2.4 -- -- 94
2019-09-18 01:00:00 13.9 12 Oeste 19 Oeste 5.2 -- -- 92
2019-09-18 00:00:00 14 19 Sudoeste 47 Sudoeste 12.4 -- -- 87
2019-09-17 23:00:00 14.9 15 Sur 36 Sur 19.4 -- -- 90
2019-09-17 22:00:00 20.8 13 Noroeste 18 Oeste 0 -- -- 62
2019-09-17 21:00:00 22.3 6 Este 15 Este 0 -- -- 53